sensor_id;sensor_type;location;lat;lon;timestamp;pressure;altitude;pressure_sealevel;temperature;humidity
30110;BME280;14965;50.660;13.226;2023-03-24T00:00:06;94062.00;;;10.71;79.81
30110;BME280;14965;50.660;13.226;2023-03-24T00:02:33;94052.19;;;10.70;79.52
30110;BME280;14965;50.660;13.226;2023-03-24T00:04:59;94061.25;;;10.71;79.81
30110;BME280;14965;50.660;13.226;2023-03-24T00:07:25;94054.94;;;10.70;79.76
30110;BME280;14965;50.660;13.226;2023-03-24T00:09:53;94042.34;;;10.69;79.30
30110;BME280;14965;50.660;13.226;2023-03-24T00:12:19;94050.63;;;10.69;79.57
30110;BME280;14965;50.660;13.226;2023-03-24T00:14:45;94042.81;;;10.68;79.52
30110;BME280;14965;50.660;13.226;2023-03-24T00:17:12;94040.53;;;10.66;79.24
30110;BME280;14965;50.660;13.226;2023-03-24T00:19:38;94046.81;;;10.67;78.67
30110;BME280;14965;50.660;13.226;2023-03-24T00:22:04;94046.50;;;10.65;78.31
30110;BME280;14965;50.660;13.226;2023-03-24T00:24:30;94047.88;;;10.69;78.48
30110;BME280;14965;50.660;13.226;2023-03-24T00:26:58;94041.59;;;10.69;78.69
30110;BME280;14965;50.660;13.226;2023-03-24T00:29:24;94045.09;;;10.69;78.62
30110;BME280;14965;50.660;13.226;2023-03-24T00:31:50;94049.09;;;10.68;78.51
30110;BME280;14965;50.660;13.226;2023-03-24T00:34:16;94055.84;;;10.67;78.33
30110;BME280;14965;50.660;13.226;2023-03-24T00:36:42;94047.56;;;10.67;78.39
30110;BME280;14965;50.660;13.226;2023-03-24T00:39:08;94042.97;;;10.64;78.60
30110;BME280;14965;50.660;13.226;2023-03-24T00:41:34;94041.44;;;10.63;78.64
30110;BME280;14965;50.660;13.226;2023-03-24T00:44:02;94042.66;;;10.62;78.79
30110;BME280;14965;50.660;13.226;2023-03-24T00:46:28;94032.38;;;10.63;78.40
30110;BME280;14965;50.660;13.226;2023-03-24T00:48:56;94034.38;;;10.62;78.78
30110;BME280;14965;50.660;13.226;2023-03-24T00:51:22;94030.38;;;10.63;78.58
30110;BME280;14965;50.660;13.226;2023-03-24T00:53:48;94026.72;;;10.66;78.26
30110;BME280;14965;50.660;13.226;2023-03-24T00:56:14;94024.41;;;10.65;78.46
30110;BME280;14965;50.660;13.226;2023-03-24T00:58:40;94026.72;;;10.66;78.28
30110;BME280;14965;50.660;13.226;2023-03-24T01:01:08;94016.44;;;10.67;78.49
30110;BME280;14965;50.660;13.226;2023-03-24T01:03:33;94021.19;;;10.66;78.49
30110;BME280;14965;50.660;13.226;2023-03-24T01:06:01;94025.16;;;10.65;78.68
30110;BME280;14965;50.660;13.226;2023-03-24T01:08:27;94019.97;;;10.67;79.45
30110;BME280;14965;50.660;13.226;2023-03-24T01:10:54;94011.22;;;10.69;79.12
30110;BME280;14965;50.660;13.226;2023-03-24T01:13:22;94013.22;;;10.68;79.36
30110;BME280;14965;50.660;13.226;2023-03-24T01:15:49;94015.50;;;10.70;79.68
30110;BME280;14965;50.660;13.226;2023-03-24T01:18:17;94005.25;;;10.70;79.30
30110;BME280;14965;50.660;13.226;2023-03-24T01:20:46;94000.16;;;10.69;79.51
30110;BME280;14965;50.660;13.226;2023-03-24T01:23:14;93999.72;;;10.70;79.51
30110;BME280;14965;50.660;13.226;2023-03-24T01:25:42;94000.94;;;10.69;79.50
30110;BME280;14965;50.660;13.226;2023-03-24T01:28:08;93995.88;;;10.68;79.70
30110;BME280;14965;50.660;13.226;2023-03-24T01:30:34;94001.41;;;10.68;79.33
30110;BME280;14965;50.660;13.226;2023-03-24T01:33:00;93998.16;;;10.69;79.61
30110;BME280;14965;50.660;13.226;2023-03-24T01:35:27;93999.41;;;10.68;79.49
30110;BME280;14965;50.660;13.226;2023-03-24T01:37:53;93992.97;;;10.71;80.00
30110;BME280;14965;50.660;13.226;2023-03-24T01:40:24;93988.97;;;10.72;81.08
30110;BME280;14965;50.660;13.226;2023-03-24T01:42:50;93986.34;;;10.69;81.78
30110;BME280;14965;50.660;13.226;2023-03-24T01:45:49;93984.69;;;10.62;82.32
30110;BME280;14965;50.660;13.226;2023-03-24T01:48:23;93986.69;;;10.62;81.49
30110;BME280;14965;50.660;13.226;2023-03-24T01:50:55;93972.41;;;10.63;81.74
30110;BME280;14965;50.660;13.226;2023-03-24T01:53:24;93981.16;;;10.62;81.93
30110;BME280;14965;50.660;13.226;2023-03-24T01:55:50;93976.69;;;10.64;81.96
30110;BME280;14965;50.660;13.226;2023-03-24T01:58:17;93975.63;;;10.62;81.89
30110;BME280;14965;50.660;13.226;2023-03-24T02:00:44;93976.25;;;10.66;82.06
30110;BME280;14965;50.660;13.226;2023-03-24T02:03:13;93976.69;;;10.64;82.31
30110;BME280;14965;50.660;13.226;2023-03-24T02:05:44;93973.50;;;10.66;81.85
30110;BME280;14965;50.660;13.226;2023-03-24T02:08:20;93960.59;;;10.63;82.73
30110;BME280;14965;50.660;13.226;2023-03-24T02:10:49;93960.13;;;10.55;82.71
30110;BME280;14965;50.660;13.226;2023-03-24T02:13:16;93964.72;;;10.49;83.01
30110;BME280;14965;50.660;13.226;2023-03-24T02:15:54;93957.22;;;10.50;83.23
30110;BME280;14965;50.660;13.226;2023-03-24T02:18:29;93960.75;;;10.50;83.70
30110;BME280;14965;50.660;13.226;2023-03-24T02:24:51;93955.06;;;10.44;83.94
30110;BME280;14965;50.660;13.226;2023-03-24T02:27:54;93954.31;;;10.44;84.28
30110;BME280;14965;50.660;13.226;2023-03-24T02:30:53;93953.53;;;10.43;84.29
30110;BME280;14965;50.660;13.226;2023-03-24T02:34:17;93955.53;;;10.43;84.70
30110;BME280;14965;50.660;13.226;2023-03-24T02:40:14;93966.72;;;10.39;84.48
30110;BME280;14965;50.660;13.226;2023-03-24T02:43:01;93965.66;;;10.37;84.54
30110;BME280;14965;50.660;13.226;2023-03-24T02:45:36;93954.63;;;10.37;84.57
30110;BME280;14965;50.660;13.226;2023-03-24T02:48:19;93947.69;;;10.32;85.32
30110;BME280;14965;50.660;13.226;2023-03-24T02:50:54;93959.53;;;10.33;85.59
30110;BME280;14965;50.660;13.226;2023-03-24T02:53:29;93959.19;;;10.31;86.02
30110;BME280;14965;50.660;13.226;2023-03-24T02:56:05;93955.81;;;10.27;86.53
30110;BME280;14965;50.660;13.226;2023-03-24T02:58:39;93940.16;;;10.23;86.91
30110;BME280;14965;50.660;13.226;2023-03-24T03:01:13;93942.00;;;10.17;87.55
30110;BME280;14965;50.660;13.226;2023-03-24T03:03:45;93937.56;;;10.20;87.35
30110;BME280;14965;50.660;13.226;2023-03-24T03:06:19;93938.63;;;10.22;87.72
30110;BME280;14965;50.660;13.226;2023-03-24T03:08:47;93935.56;;;10.20;87.20
30110;BME280;14965;50.660;13.226;2023-03-24T03:11:16;93925.59;;;10.23;87.56
30110;BME280;14965;50.660;13.226;2023-03-24T03:13:49;93921.78;;;10.20;86.95
30110;BME280;14965;50.660;13.226;2023-03-24T03:16:23;93924.81;;;10.22;86.50
30110;BME280;14965;50.660;13.226;2023-03-24T03:18:57;93923.19;;;10.25;86.71
30110;BME280;14965;50.660;13.226;2023-03-24T03:21:29;93914.91;;;10.25;86.18
30110;BME280;14965;50.660;13.226;2023-03-24T03:24:01;93915.97;;;10.28;86.29
30110;BME280;14965;50.660;13.226;2023-03-24T03:26:31;93907.53;;;10.31;85.90
30110;BME280;14965;50.660;13.226;2023-03-24T03:29:04;93904.16;;;10.36;85.66
30110;BME280;14965;50.660;13.226;2023-03-24T03:31:39;93900.03;;;10.41;85.91
30110;BME280;14965;50.660;13.226;2023-03-24T03:34:13;93893.28;;;10.42;86.15
30110;BME280;14965;50.660;13.226;2023-03-24T03:36:52;93883.28;;;10.44;86.32
30110;BME280;14965;50.660;13.226;2023-03-24T03:39:27;93881.00;;;10.43;86.37
30110;BME280;14965;50.660;13.226;2023-03-24T03:41:56;93874.88;;;10.39;85.76
30110;BME280;14965;50.660;13.226;2023-03-24T03:44:22;93878.72;;;10.41;85.69
30110;BME280;14965;50.660;13.226;2023-03-24T03:46:48;93870.72;;;10.43;85.36
30110;BME280;14965;50.660;13.226;2023-03-24T03:49:14;93878.09;;;10.46;85.19
30110;BME280;14965;50.660;13.226;2023-03-24T03:51:40;93873.34;;;10.47;85.45
30110;BME280;14965;50.660;13.226;2023-03-24T03:54:10;93874.84;;;10.48;85.38
30110;BME280;14965;50.660;13.226;2023-03-24T03:56:38;93869.81;;;10.46;84.82
30110;BME280;14965;50.660;13.226;2023-03-24T03:59:06;93868.44;;;10.42;85.05
30110;BME280;14965;50.660;13.226;2023-03-24T04:01:36;93864.44;;;10.43;84.61
30110;BME280;14965;50.660;13.226;2023-03-24T04:04:19;93858.00;;;10.46;84.39
30110;BME280;14965;50.660;13.226;2023-03-24T04:06:58;93853.72;;;10.45;83.96
30110;BME280;14965;50.660;13.226;2023-03-24T04:09:39;93844.97;;;10.46;84.52
30110;BME280;14965;50.660;13.226;2023-03-24T04:12:28;93840.22;;;10.47;84.43
30110;BME280;14965;50.660;13.226;2023-03-24T04:15:30;93846.81;;;10.40;84.07
30110;BME280;14965;50.660;13.226;2023-03-24T04:18:15;93840.84;;;10.42;84.24
30110;BME280;14965;50.660;13.226;2023-03-24T04:20:47;93841.28;;;10.40;83.89
30110;BME280;14965;50.660;13.226;2023-03-24T04:23:27;93830.09;;;10.35;84.04
30110;BME280;14965;50.660;13.226;2023-03-24T04:26:04;93834.09;;;10.34;84.09
30110;BME280;14965;50.660;13.226;2023-03-24T04:28:43;93836.53;;;10.32;84.02
30110;BME280;14965;50.660;13.226;2023-03-24T04:31:19;93829.22;;;10.29;83.95
30110;BME280;14965;50.660;13.226;2023-03-24T04:33:51;93831.97;;;10.29;84.01
30110;BME280;14965;50.660;13.226;2023-03-24T04:36:26;93835.50;;;10.29;84.16
30110;BME280;14965;50.660;13.226;2023-03-24T04:38:55;93849.44;;;10.26;84.27
30110;BME280;14965;50.660;13.226;2023-03-24T04:41:25;93846.69;;;10.26;84.29
30110;BME280;14965;50.660;13.226;2023-03-24T04:43:55;93842.03;;;10.22;84.29
30110;BME280;14965;50.660;13.226;2023-03-24T04:46:24;93849.44;;;10.26;84.52
30110;BME280;14965;50.660;13.226;2023-03-24T04:48:50;93841.78;;;10.30;84.39
30110;BME280;14965;50.660;13.226;2023-03-24T04:51:18;93850.19;;;10.26;83.95
30110;BME280;14965;50.660;13.226;2023-03-24T04:53:45;93842.22;;;10.28;84.25
30110;BME280;14965;50.660;13.226;2023-03-24T04:56:29;93840.69;;;10.27;83.75
30110;BME280;14965;50.660;13.226;2023-03-24T04:58:55;93839.00;;;10.30;83.72
30110;BME280;14965;50.660;13.226;2023-03-24T05:01:21;93833.03;;;10.31;83.97
30110;BME280;14965;50.660;13.226;2023-03-24T05:03:49;93840.25;;;10.29;83.57
30110;BME280;14965;50.660;13.226;2023-03-24T05:06:15;93815.69;;;10.31;83.82
30110;BME280;14965;50.660;13.226;2023-03-24T05:08:41;93825.50;;;10.32;83.66
30110;BME280;14965;50.660;13.226;2023-03-24T05:11:07;93817.84;;;10.36;83.46
30110;BME280;14965;50.660;13.226;2023-03-24T05:13:33;93823.50;;;10.41;83.62
30110;BME280;14965;50.660;13.226;2023-03-24T05:15:59;93823.66;;;10.38;83.08
30110;BME280;14965;50.660;13.226;2023-03-24T05:18:25;93823.03;;;10.43;83.56
30110;BME280;14965;50.660;13.226;2023-03-24T05:20:52;93811.72;;;10.41;83.58
30110;BME280;14965;50.660;13.226;2023-03-24T05:23:18;93814.00;;;10.42;83.64
30110;BME280;14965;50.660;13.226;2023-03-24T05:25:45;93807.56;;;10.45;83.67
30110;BME280;14965;50.660;13.226;2023-03-24T05:28:11;93804.16;;;10.51;83.58
30110;BME280;14965;50.660;13.226;2023-03-24T05:30:37;93819.97;;;10.50;83.29
30110;BME280;14965;50.660;13.226;2023-03-24T05:33:03;93826.09;;;10.54;82.96
30110;BME280;14965;50.660;13.226;2023-03-24T05:35:29;93826.09;;;10.54;83.36
30110;BME280;14965;50.660;13.226;2023-03-24T05:37:56;93825.94;;;10.58;83.37
30110;BME280;14965;50.660;13.226;2023-03-24T05:40:22;93820.22;;;10.61;83.16
30110;BME280;14965;50.660;13.226;2023-03-24T05:42:49;93813.19;;;10.60;83.48
30110;BME280;14965;50.660;13.226;2023-03-24T05:45:16;93817.47;;;10.61;83.29
30110;BME280;14965;50.660;13.226;2023-03-24T05:47:42;93816.09;;;10.66;83.43
30110;BME280;14965;50.660;13.226;2023-03-24T05:50:09;93816.69;;;10.70;82.92
30110;BME280;14965;50.660;13.226;2023-03-24T05:52:35;93812.53;;;10.75;83.14
30110;BME280;14965;50.660;13.226;2023-03-24T05:55:03;93813.75;;;10.73;82.39
30110;BME280;14965;50.660;13.226;2023-03-24T05:57:29;93812.81;;;10.77;82.18
30110;BME280;14965;50.660;13.226;2023-03-24T05:59:56;93800.38;;;10.81;81.93
30110;BME280;14965;50.660;13.226;2023-03-24T06:02:22;93799.59;;;10.90;81.67
30110;BME280;14965;50.660;13.226;2023-03-24T06:04:51;93799.53;;;10.99;81.83
30110;BME280;14965;50.660;13.226;2023-03-24T06:07:17;93797.38;;;11.03;80.99
30110;BME280;14965;50.660;13.226;2023-03-24T06:09:44;93796.91;;;11.05;80.74
30110;BME280;14965;50.660;13.226;2023-03-24T06:12:13;93799.22;;;11.06;81.05
30110;BME280;14965;50.660;13.226;2023-03-24T06:14:38;93798.28;;;11.09;80.96
30110;BME280;14965;50.660;13.226;2023-03-24T06:17:06;93801.31;;;11.11;80.42
30110;BME280;14965;50.660;13.226;2023-03-24T06:19:32;93798.72;;;11.17;80.61
30110;BME280;14965;50.660;13.226;2023-03-24T06:21:58;93800.81;;;11.22;80.36
30110;BME280;14965;50.660;13.226;2023-03-24T06:24:25;93783.75;;;11.23;80.09
30110;BME280;14965;50.660;13.226;2023-03-24T06:26:50;93795.28;;;11.22;80.13
30110;BME280;14965;50.660;13.226;2023-03-24T06:29:18;93788.25;;;11.21;79.82
30110;BME280;14965;50.660;13.226;2023-03-24T06:31:44;93784.66;;;11.30;80.17
30110;BME280;14965;50.660;13.226;2023-03-24T06:34:11;93780.94;;;11.33;79.90
30110;BME280;14965;50.660;13.226;2023-03-24T06:36:37;93782.19;;;11.32;79.48
30110;BME280;14965;50.660;13.226;2023-03-24T06:39:03;93781.91;;;11.30;79.63
30110;BME280;14965;50.660;13.226;2023-03-24T06:41:29;93787.13;;;11.28;79.22
30110;BME280;14965;50.660;13.226;2023-03-24T06:43:55;93786.19;;;11.31;79.34
30110;BME280;14965;50.660;13.226;2023-03-24T06:46:23;93788.34;;;11.27;79.48
30110;BME280;14965;50.660;13.226;2023-03-24T06:48:49;93784.66;;;11.30;79.18
30110;BME280;14965;50.660;13.226;2023-03-24T06:51:15;93781.59;;;11.28;79.12
30110;BME280;14965;50.660;13.226;2023-03-24T06:53:41;93788.31;;;11.36;79.20
30110;BME280;14965;50.660;13.226;2023-03-24T06:56:07;93796.25;;;11.43;78.70
30110;BME280;14965;50.660;13.226;2023-03-24T06:58:33;93798.38;;;11.48;78.15
30110;BME280;14965;50.660;13.226;2023-03-24T07:01:00;93794.56;;;11.45;78.09
30110;BME280;14965;50.660;13.226;2023-03-24T07:03:27;93802.97;;;11.51;77.98
30110;BME280;14965;50.660;13.226;2023-03-24T07:05:53;93798.88;;;11.61;77.73
30110;BME280;14965;50.660;13.226;2023-03-24T07:08:19;93809.53;;;11.78;77.41
30110;BME280;14965;50.660;13.226;2023-03-24T07:10:45;93803.81;;;11.81;76.95
30110;BME280;14965;50.660;13.226;2023-03-24T07:13:11;93817.19;;;11.83;76.02
30110;BME280;14965;50.660;13.226;2023-03-24T07:15:37;93813.66;;;11.82;76.51
30110;BME280;14965;50.660;13.226;2023-03-24T07:18:03;93802.97;;;11.75;76.77
30110;BME280;14965;50.660;13.226;2023-03-24T07:20:31;93812.03;;;11.76;77.03
30110;BME280;14965;50.660;13.226;2023-03-24T07:22:57;93804.59;;;11.82;77.18
30110;BME280;14965;50.660;13.226;2023-03-24T07:25:24;93803.00;;;11.90;76.90
30110;BME280;14965;50.660;13.226;2023-03-24T07:27:53;93799.00;;;11.91;76.13
30110;BME280;14965;50.660;13.226;2023-03-24T07:30:19;93807.13;;;11.94;76.20
30110;BME280;14965;50.660;13.226;2023-03-24T07:32:45;93797.88;;;11.98;75.93
30110;BME280;14965;50.660;13.226;2023-03-24T07:35:12;93801.91;;;12.11;76.26
30110;BME280;14965;50.660;13.226;2023-03-24T07:37:39;93811.78;;;12.12;75.50
30110;BME280;14965;50.660;13.226;2023-03-24T07:40:07;93807.75;;;12.28;75.53
30110;BME280;14965;50.660;13.226;2023-03-24T07:42:34;93807.88;;;12.49;74.96
30110;BME280;14965;50.660;13.226;2023-03-24T07:45:00;93789.06;;;12.53;74.06
30110;BME280;14965;50.660;13.226;2023-03-24T07:47:26;93785.63;;;12.43;74.54
30110;BME280;14965;50.660;13.226;2023-03-24T07:49:52;93791.28;;;12.34;75.02
30110;BME280;14965;50.660;13.226;2023-03-24T07:52:18;93791.63;;;12.41;75.32
30110;BME280;14965;50.660;13.226;2023-03-24T07:54:45;93804.66;;;12.50;73.87
30110;BME280;14965;50.660;13.226;2023-03-24T07:57:11;93801.22;;;12.55;74.47
30110;BME280;14965;50.660;13.226;2023-03-24T07:59:37;93784.75;;;12.66;73.79
30110;BME280;14965;50.660;13.226;2023-03-24T08:02:03;93793.06;;;12.81;73.26
30110;BME280;14965;50.660;13.226;2023-03-24T08:04:29;93790.88;;;13.00;72.55
30110;BME280;14965;50.660;13.226;2023-03-24T08:06:55;93790.88;;;13.20;71.78
30110;BME280;14965;50.660;13.226;2023-03-24T08:09:21;93791.78;;;13.27;71.11
30110;BME280;14965;50.660;13.226;2023-03-24T08:11:48;93797.13;;;13.15;70.92
30110;BME280;14965;50.660;13.226;2023-03-24T08:14:14;93801.94;;;13.00;71.66
30110;BME280;14965;50.660;13.226;2023-03-24T08:16:40;93802.16;;;12.82;72.84
30110;BME280;14965;50.660;13.226;2023-03-24T08:19:06;93810.19;;;12.65;72.68
30110;BME280;14965;50.660;13.226;2023-03-24T08:21:33;93809.53;;;12.55;73.75
30110;BME280;14965;50.660;13.226;2023-03-24T08:23:59;93812.97;;;12.50;74.14
30110;BME280;14965;50.660;13.226;2023-03-24T08:26:25;93809.69;;;12.37;74.19
30110;BME280;14965;50.660;13.226;2023-03-24T08:28:52;93806.63;;;12.35;74.60
30110;BME280;14965;50.660;13.226;2023-03-24T08:31:18;93806.81;;;12.31;75.11
30110;BME280;14965;50.660;13.226;2023-03-24T08:33:44;93819.31;;;12.27;75.25
30110;BME280;14965;50.660;13.226;2023-03-24T08:36:10;93809.69;;;12.22;75.43
30110;BME280;14965;50.660;13.226;2023-03-24T08:38:36;93811.78;;;12.12;75.46
30110;BME280;14965;50.660;13.226;2023-03-24T08:41:04;93809.63;;;12.07;76.25
30110;BME280;14965;50.660;13.226;2023-03-24T08:43:32;93808.19;;;11.97;76.64
30110;BME280;14965;50.660;13.226;2023-03-24T08:46:01;93797.13;;;11.97;76.80
30110;BME280;14965;50.660;13.226;2023-03-24T08:48:29;93787.22;;;12.05;76.62
30110;BME280;14965;50.660;13.226;2023-03-24T08:50:55;93785.72;;;12.19;77.07
30110;BME280;14965;50.660;13.226;2023-03-24T08:53:22;93777.53;;;12.39;76.18
30110;BME280;14965;50.660;13.226;2023-03-24T08:55:48;93779.22;;;12.66;75.25
30110;BME280;14965;50.660;13.226;2023-03-24T08:58:16;93779.41;;;12.78;74.47
30110;BME280;14965;50.660;13.226;2023-03-24T09:00:44;93794.63;;;12.67;74.46
30110;BME280;14965;50.660;13.226;2023-03-24T09:03:16;93788.47;;;12.78;75.31
30110;BME280;14965;50.660;13.226;2023-03-24T09:05:42;93777.78;;;12.86;74.54
30110;BME280;14965;50.660;13.226;2023-03-24T09:08:09;93784.50;;;12.79;72.79
30110;BME280;14965;50.660;13.226;2023-03-24T09:10:35;93784.38;;;12.74;73.78
30110;BME280;14965;50.660;13.226;2023-03-24T09:13:01;93781.72;;;12.79;74.40
30110;BME280;14965;50.660;13.226;2023-03-24T09:15:27;93786.47;;;12.79;73.33
30110;BME280;14965;50.660;13.226;2023-03-24T09:17:53;93774.81;;;12.75;74.01
30110;BME280;14965;50.660;13.226;2023-03-24T09:20:21;93800.41;;;12.99;73.51
30110;BME280;14965;50.660;13.226;2023-03-24T09:22:47;93775.91;;;13.27;72.00
30110;BME280;14965;50.660;13.226;2023-03-24T09:25:17;93777.38;;;13.43;71.41
30110;BME280;14965;50.660;13.226;2023-03-24T09:27:44;93768.63;;;13.50;69.51
30110;BME280;14965;50.660;13.226;2023-03-24T09:30:13;93760.88;;;13.75;69.80
30110;BME280;14965;50.660;13.226;2023-03-24T09:32:40;93765.16;;;13.96;68.40
30110;BME280;14965;50.660;13.226;2023-03-24T09:35:07;93766.25;;;14.04;68.31
30110;BME280;14965;50.660;13.226;2023-03-24T09:37:37;93763.09;;;13.91;67.04
30110;BME280;14965;50.660;13.226;2023-03-24T09:40:05;93763.81;;;13.86;67.17
30110;BME280;14965;50.660;13.226;2023-03-24T09:42:36;93769.16;;;13.89;67.90
30110;BME280;14965;50.660;13.226;2023-03-24T09:45:11;93769.31;;;14.27;67.47
30110;BME280;14965;50.660;13.226;2023-03-24T09:47:41;93747.00;;;14.67;65.78
30110;BME280;14965;50.660;13.226;2023-03-24T09:50:20;93747.19;;;14.64;61.98
30110;BME280;14965;50.660;13.226;2023-03-24T09:52:55;93743.59;;;14.58;63.56
30110;BME280;14965;50.660;13.226;2023-03-24T09:55:27;93751.50;;;14.65;63.14
30110;BME280;14965;50.660;13.226;2023-03-24T09:57:58;93744.31;;;14.53;62.00
30110;BME280;14965;50.660;13.226;2023-03-24T10:00:30;93756.19;;;14.53;62.13
30110;BME280;14965;50.660;13.226;2023-03-24T10:02:59;93750.09;;;14.49;63.23
30110;BME280;14965;50.660;13.226;2023-03-24T10:05:32;93743.59;;;14.58;62.89
30110;BME280;14965;50.660;13.226;2023-03-24T10:08:13;93770.59;;;14.52;62.04
30110;BME280;14965;50.660;13.226;2023-03-24T10:11:04;93773.59;;;14.28;63.20
30110;BME280;14965;50.660;13.226;2023-03-24T10:13:50;93772.44;;;14.14;64.15
30110;BME280;14965;50.660;13.226;2023-03-24T10:16:28;93761.88;;;13.92;64.21
30110;BME280;14965;50.660;13.226;2023-03-24T10:19:03;93767.13;;;13.90;64.52
30110;BME280;14965;50.660;13.226;2023-03-24T10:21:37;93761.25;;;14.08;65.81
30110;BME280;14965;50.660;13.226;2023-03-24T10:24:16;93762.69;;;14.24;63.46
30110;BME280;14965;50.660;13.226;2023-03-24T10:26:57;93751.19;;;14.57;62.26
30110;BME280;14965;50.660;13.226;2023-03-24T10:29:34;93749.53;;;14.71;62.71
30110;BME280;14965;50.660;13.226;2023-03-24T10:32:08;93749.13;;;14.52;61.99
30110;BME280;14965;50.660;13.226;2023-03-24T10:34:40;93761.69;;;14.48;62.99
30110;BME280;14965;50.660;13.226;2023-03-24T10:37:14;93761.13;;;14.43;63.31
30110;BME280;14965;50.660;13.226;2023-03-24T10:39:42;93764.75;;;14.50;63.25
30110;BME280;14965;50.660;13.226;2023-03-24T10:42:16;93774.44;;;14.60;62.18
30110;BME280;14965;50.660;13.226;2023-03-24T10:44:43;93755.97;;;14.57;63.71
30110;BME280;14965;50.660;13.226;2023-03-24T10:47:13;93753.19;;;14.57;62.12
30110;BME280;14965;50.660;13.226;2023-03-24T10:49:54;93770.94;;;14.65;63.61
30110;BME280;14965;50.660;13.226;2023-03-24T10:52:21;93769.25;;;14.73;62.36
30110;BME280;14965;50.660;13.226;2023-03-24T10:54:56;93788.66;;;14.67;63.47
30110;BME280;14965;50.660;13.226;2023-03-24T10:57:24;93780.97;;;14.57;61.72
30110;BME280;14965;50.660;13.226;2023-03-24T10:59:56;93779.38;;;14.50;61.90
30110;BME280;14965;50.660;13.226;2023-03-24T11:02:24;93785.09;;;14.41;61.81
30110;BME280;14965;50.660;13.226;2023-03-24T11:04:56;93802.69;;;14.32;61.98
30110;BME280;14965;50.660;13.226;2023-03-24T11:07:28;93793.25;;;14.24;62.76
30110;BME280;14965;50.660;13.226;2023-03-24T11:10:05;93799.00;;;14.20;62.34
30110;BME280;14965;50.660;13.226;2023-03-24T11:12:34;93792.03;;;14.05;62.81
30110;BME280;14965;50.660;13.226;2023-03-24T11:15:13;93790.38;;;13.92;63.25
30110;BME280;14965;50.660;13.226;2023-03-24T11:17:40;93787.66;;;13.78;63.62
30110;BME280;14965;50.660;13.226;2023-03-24T11:20:17;93819.69;;;13.58;64.43
30110;BME280;14965;50.660;13.226;2023-03-24T11:22:56;93814.13;;;13.58;65.73
30110;BME280;14965;50.660;13.226;2023-03-24T11:25:29;93805.16;;;13.63;65.46
30110;BME280;14965;50.660;13.226;2023-03-24T11:27:59;93809.72;;;13.46;65.05
30110;BME280;14965;50.660;13.226;2023-03-24T11:30:32;93819.31;;;13.30;66.17
30110;BME280;14965;50.660;13.226;2023-03-24T11:32:59;93794.44;;;13.36;66.84
30110;BME280;14965;50.660;13.226;2023-03-24T11:35:27;93782.88;;;13.58;65.97
30110;BME280;14965;50.660;13.226;2023-03-24T11:37:53;93792.66;;;13.74;65.22
30110;BME280;14965;50.660;13.226;2023-03-24T11:40:26;93795.94;;;13.92;65.88
30110;BME280;14965;50.660;13.226;2023-03-24T11:42:57;93796.03;;;14.04;65.45
30110;BME280;14965;50.660;13.226;2023-03-24T11:45:34;93793.22;;;13.98;64.30
30110;BME280;14965;50.660;13.226;2023-03-24T11:48:13;93783.94;;;13.81;64.85
30110;BME280;14965;50.660;13.226;2023-03-24T11:50:44;93795.78;;;13.61;65.56
30110;BME280;14965;50.660;13.226;2023-03-24T11:53:16;93784.25;;;13.48;66.22
30110;BME280;14965;50.660;13.226;2023-03-24T11:55:52;93783.06;;;13.34;66.92
30110;BME280;14965;50.660;13.226;2023-03-24T11:58:32;93781.44;;;13.12;67.16
30110;BME280;14965;50.660;13.226;2023-03-24T12:01:05;93773.94;;;12.98;69.10
30110;BME280;14965;50.660;13.226;2023-03-24T12:03:57;93775.78;;;12.86;69.82
30110;BME280;14965;50.660;13.226;2023-03-24T12:06:46;93773.56;;;12.90;70.22
30110;BME280;14965;50.660;13.226;2023-03-24T12:09:24;93783.06;;;12.84;70.60
30110;BME280;14965;50.660;13.226;2023-03-24T12:12:19;93781.16;;;12.75;71.21
30110;BME280;14965;50.660;13.226;2023-03-24T12:17:57;93776.56;;;12.57;73.17
30110;BME280;14965;50.660;13.226;2023-03-24T12:20:28;93784.03;;;12.51;72.35
30110;BME280;14965;50.660;13.226;2023-03-24T12:23:01;93778.09;;;12.43;73.33
30110;BME280;14965;50.660;13.226;2023-03-24T12:25:47;93785.06;;;12.39;74.42
30110;BME280;14965;50.660;13.226;2023-03-24T12:28:29;93795.66;;;12.26;74.99
30110;BME280;14965;50.660;13.226;2023-03-24T12:31:25;93794.50;;;12.17;75.80
30110;BME280;14965;50.660;13.226;2023-03-24T12:34:05;93789.81;;;12.09;77.33
30110;BME280;14965;50.660;13.226;2023-03-24T12:36:45;93789.41;;;12.16;77.92
30110;BME280;14965;50.660;13.226;2023-03-24T12:39:26;93767.00;;;12.29;77.09
30110;BME280;14965;50.660;13.226;2023-03-24T12:42:11;93779.25;;;12.52;77.12
30110;BME280;14965;50.660;13.226;2023-03-24T12:45:20;93775.22;;;12.67;75.99
30110;BME280;14965;50.660;13.226;2023-03-24T12:48:23;93770.53;;;12.74;75.31
30110;BME280;14965;50.660;13.226;2023-03-24T12:51:06;93776.25;;;12.70;74.92
30110;BME280;14965;50.660;13.226;2023-03-24T12:54:03;93773.50;;;12.55;74.92
30110;BME280;14965;50.660;13.226;2023-03-24T12:56:37;93769.59;;;12.47;75.34
30110;BME280;14965;50.660;13.226;2023-03-24T12:59:10;93767.88;;;12.35;75.62
30110;BME280;14965;50.660;13.226;2023-03-24T13:01:44;93769.75;;;12.29;76.14
30110;BME280;14965;50.660;13.226;2023-03-24T13:04:18;93757.66;;;12.26;76.38
30110;BME280;14965;50.660;13.226;2023-03-24T13:06:50;93771.19;;;12.24;76.19
30110;BME280;14965;50.660;13.226;2023-03-24T13:09:30;93763.56;;;12.19;76.45
30110;BME280;14965;50.660;13.226;2023-03-24T13:12:04;93757.63;;;12.11;77.22
30110;BME280;14965;50.660;13.226;2023-03-24T13:14:47;93763.34;;;12.08;77.84
30110;BME280;14965;50.660;13.226;2023-03-24T13:17:23;93759.06;;;12.07;78.70
30110;BME280;14965;50.660;13.226;2023-03-24T13:19:53;93759.38;;;12.24;78.49